sensor_id;sensor_type;location;lat;lon;timestamp;pressure;altitude;pressure_sealevel;temperature;humidity
33163;BME280;29282;45.656;11.302;2023-07-28T00:01:47;98254.84;;;23.82;53.76
33163;BME280;29282;45.656;11.302;2023-07-28T00:04:12;98245.75;;;23.81;53.48
33163;BME280;29282;45.656;11.302;2023-07-28T00:06:38;98241.00;;;23.82;53.86
33163;BME280;29282;45.656;11.302;2023-07-28T00:09:03;98227.53;;;23.80;53.61
33163;BME280;29282;45.656;11.302;2023-07-28T00:11:29;98234.69;;;23.81;53.88
33163;BME280;29282;45.656;11.302;2023-07-28T00:13:54;98244.13;;;23.80;53.61
33163;BME280;29282;45.656;11.302;2023-07-28T00:16:20;98225.59;;;23.81;53.72
33163;BME280;29282;45.656;11.302;2023-07-28T00:18:45;98224.78;;;23.80;53.68
33163;BME280;29282;45.656;11.302;2023-07-28T00:21:11;98223.63;;;23.81;53.61
33163;BME280;29282;45.656;11.302;2023-07-28T00:23:36;98214.53;;;23.81;53.62
33163;BME280;29282;45.656;11.302;2023-07-28T00:26:02;98216.47;;;23.80;53.47
33163;BME280;29282;45.656;11.302;2023-07-28T00:28:27;98220.06;;;23.81;53.47
33163;BME280;29282;45.656;11.302;2023-07-28T00:30:53;98222.00;;;23.80;53.85
33163;BME280;29282;45.656;11.302;2023-07-28T00:33:18;98198.28;;;23.79;53.64
33163;BME280;29282;45.656;11.302;2023-07-28T00:35:44;98210.94;;;23.80;53.73
33163;BME280;29282;45.656;11.302;2023-07-28T00:38:10;98197.09;;;23.80;53.61
33163;BME280;29282;45.656;11.302;2023-07-28T00:40:38;98197.09;;;23.80;53.43
33163;BME280;29282;45.656;11.302;2023-07-28T00:43:03;98194.34;;;23.80;53.51
33163;BME280;29282;45.656;11.302;2023-07-28T00:45:31;98206.22;;;23.81;53.51
33163;BME280;29282;45.656;11.302;2023-07-28T00:47:58;98203.47;;;23.81;53.69
33163;BME280;29282;45.656;11.302;2023-07-28T00:50:23;98207.38;;;23.80;53.79
33163;BME280;29282;45.656;11.302;2023-07-28T00:52:49;98195.53;;;23.79;53.58
33163;BME280;29282;45.656;11.302;2023-07-28T00:55:16;98187.22;;;23.79;53.51
33163;BME280;29282;45.656;11.302;2023-07-28T00:57:41;98188.81;;;23.80;53.77
33163;BME280;29282;45.656;11.302;2023-07-28T01:00:08;98193.53;;;23.80;53.56
33163;BME280;29282;45.656;11.302;2023-07-28T01:02:34;98188.00;;;23.80;53.57
33163;BME280;29282;45.656;11.302;2023-07-28T01:05:00;98190.00;;;23.79;53.62
33163;BME280;29282;45.656;11.302;2023-07-28T01:07:32;98185.63;;;23.78;53.62
33163;BME280;29282;45.656;11.302;2023-07-28T01:10:18;98180.09;;;23.78;53.68
33163;BME280;29282;45.656;11.302;2023-07-28T01:12:44;98178.91;;;23.79;53.38
33163;BME280;29282;45.656;11.302;2023-07-28T01:15:09;98176.16;;;23.79;53.41
33163;BME280;29282;45.656;11.302;2023-07-28T01:17:35;98177.34;;;23.78;53.39
33163;BME280;29282;45.656;11.302;2023-07-28T01:20:02;98168.66;;;23.80;53.42
33163;BME280;29282;45.656;11.302;2023-07-28T01:22:48;98171.81;;;23.78;53.37
33163;BME280;29282;45.656;11.302;2023-07-28T01:27:44;98172.59;;;23.79;53.47
33163;BME280;29282;45.656;11.302;2023-07-28T01:30:11;98165.09;;;23.79;53.53
33163;BME280;29282;45.656;11.302;2023-07-28T01:32:36;98167.06;;;23.79;53.32
33163;BME280;29282;45.656;11.302;2023-07-28T01:35:03;98170.63;;;23.79;53.63
33163;BME280;29282;45.656;11.302;2023-07-28T01:37:29;98170.63;;;23.79;53.62
33163;BME280;29282;45.656;11.302;2023-07-28T01:39:54;98157.97;;;23.78;53.77
33163;BME280;29282;45.656;11.302;2023-07-28T01:42:20;98155.19;;;23.78;53.79
33163;BME280;29282;45.656;11.302;2023-07-28T01:44:45;98156.00;;;23.79;53.78
33163;BME280;29282;45.656;11.302;2023-07-28T01:47:11;98160.75;;;23.78;53.58
33163;BME280;29282;45.656;11.302;2023-07-28T01:49:36;98160.75;;;23.78;53.35
33163;BME280;29282;45.656;11.302;2023-07-28T01:52:02;98166.28;;;23.78;53.62
33163;BME280;29282;45.656;11.302;2023-07-28T01:54:28;98160.75;;;23.78;53.65
33163;BME280;29282;45.656;11.302;2023-07-28T01:56:53;98160.34;;;23.80;53.59
33163;BME280;29282;45.656;11.302;2023-07-28T01:59:19;98159.94;;;23.78;53.38
33163;BME280;29282;45.656;11.302;2023-07-28T02:01:45;98153.59;;;23.77;53.35
33163;BME280;29282;45.656;11.302;2023-07-28T02:04:11;98165.47;;;23.78;53.50
33163;BME280;29282;45.656;11.302;2023-07-28T02:06:36;98161.53;;;23.79;53.82
33163;BME280;29282;45.656;11.302;2023-07-28T02:09:02;98164.28;;;23.79;53.42
33163;BME280;29282;45.656;11.302;2023-07-28T02:11:27;98171.00;;;23.78;53.66
33163;BME280;29282;45.656;11.302;2023-07-28T02:13:53;98172.59;;;23.79;53.53
33163;BME280;29282;45.656;11.302;2023-07-28T02:16:18;98166.28;;;23.78;53.60
33163;BME280;29282;45.656;11.302;2023-07-28T02:18:44;98160.75;;;23.78;53.71
33163;BME280;29282;45.656;11.302;2023-07-28T02:21:09;98161.53;;;23.79;53.64
33163;BME280;29282;45.656;11.302;2023-07-28T02:23:38;98165.47;;;23.78;53.56
33163;BME280;29282;45.656;11.302;2023-07-28T02:26:06;98159.94;;;23.78;53.63
33163;BME280;29282;45.656;11.302;2023-07-28T02:28:32;98163.84;;;23.77;53.53
33163;BME280;29282;45.656;11.302;2023-07-28T02:30:58;98163.50;;;23.78;53.55
33163;BME280;29282;45.656;11.302;2023-07-28T02:33:27;98165.47;;;23.78;53.75
33163;BME280;29282;45.656;11.302;2023-07-28T02:35:55;98161.09;;;23.77;53.38
33163;BME280;29282;45.656;11.302;2023-07-28T02:38:21;98165.47;;;23.78;53.68
33163;BME280;29282;45.656;11.302;2023-07-28T02:40:46;98163.50;;;23.78;53.54
33163;BME280;29282;45.656;11.302;2023-07-28T02:43:12;98168.25;;;23.78;53.66
33163;BME280;29282;45.656;11.302;2023-07-28T02:45:38;98167.41;;;23.77;53.61
33163;BME280;29282;45.656;11.302;2023-07-28T02:48:04;98167.06;;;23.79;53.53
33163;BME280;29282;45.656;11.302;2023-07-28T02:50:30;98164.66;;;23.77;53.53
33163;BME280;29282;45.656;11.302;2023-07-28T02:52:56;98172.94;;;23.77;53.60
33163;BME280;29282;45.656;11.302;2023-07-28T02:55:22;98172.94;;;23.77;53.80
33163;BME280;29282;45.656;11.302;2023-07-28T02:57:50;98170.19;;;23.77;53.75
33163;BME280;29282;45.656;11.302;2023-07-28T03:00:16;98172.16;;;23.77;53.47
33163;BME280;29282;45.656;11.302;2023-07-28T03:02:42;98167.41;;;23.77;53.65
33163;BME280;29282;45.656;11.302;2023-07-28T03:05:08;98165.84;;;23.76;53.64
33163;BME280;29282;45.656;11.302;2023-07-28T03:07:33;98170.19;;;23.77;53.64
33163;BME280;29282;45.656;11.302;2023-07-28T03:09:59;98164.66;;;23.77;53.83
33163;BME280;29282;45.656;11.302;2023-07-28T03:12:28;98163.84;;;23.77;53.64
33163;BME280;29282;45.656;11.302;2023-07-28T03:14:53;98161.09;;;23.77;53.77
33163;BME280;29282;45.656;11.302;2023-07-28T03:17:21;98161.09;;;23.77;53.51
33163;BME280;29282;45.656;11.302;2023-07-28T03:19:47;98158.31;;;23.77;53.70
33163;BME280;29282;45.656;11.302;2023-07-28T03:22:12;98158.31;;;23.77;53.61
33163;BME280;29282;45.656;11.302;2023-07-28T03:24:38;98160.31;;;23.76;53.67
33163;BME280;29282;45.656;11.302;2023-07-28T03:27:04;98146.47;;;23.76;53.54
33163;BME280;29282;45.656;11.302;2023-07-28T03:29:30;98150.03;;;23.77;53.67
33163;BME280;29282;45.656;11.302;2023-07-28T03:31:55;98152.00;;;23.76;53.61
33163;BME280;29282;45.656;11.302;2023-07-28T03:34:20;98164.66;;;23.77;53.55
33163;BME280;29282;45.656;11.302;2023-07-28T03:36:46;98167.81;;;23.76;53.56
33163;BME280;29282;45.656;11.302;2023-07-28T03:39:11;98160.31;;;23.76;53.80
33163;BME280;29282;45.656;11.302;2023-07-28T03:41:37;98163.06;;;23.76;53.29
33163;BME280;29282;45.656;11.302;2023-07-28T03:44:03;98158.31;;;23.77;53.62
33163;BME280;29282;45.656;11.302;2023-07-28T03:46:28;98153.19;;;23.75;53.43
33163;BME280;29282;45.656;11.302;2023-07-28T03:48:54;98152.00;;;23.76;53.43
33163;BME280;29282;45.656;11.302;2023-07-28T03:53:57;98139.34;;;23.75;53.67
33163;BME280;29282;45.656;11.302;2023-07-28T03:56:23;98143.69;;;23.76;53.40
33163;BME280;29282;45.656;11.302;2023-07-28T03:58:48;98147.66;;;23.75;53.37
33163;BME280;29282;45.656;11.302;2023-07-28T04:01:14;98153.97;;;23.76;53.41
33163;BME280;29282;45.656;11.302;2023-07-28T04:03:39;98145.69;;;23.76;53.62
33163;BME280;29282;45.656;11.302;2023-07-28T04:06:10;98142.13;;;23.75;53.64
33163;BME280;29282;45.656;11.302;2023-07-28T04:08:37;98147.66;;;23.75;53.32
33163;BME280;29282;45.656;11.302;2023-07-28T04:11:02;98147.66;;;23.75;53.78
33163;BME280;29282;45.656;11.302;2023-07-28T04:13:28;98147.66;;;23.75;53.45
33163;BME280;29282;45.656;11.302;2023-07-28T04:15:54;98150.41;;;23.75;53.56
33163;BME280;29282;45.656;11.302;2023-07-28T04:18:19;98149.63;;;23.75;53.50
33163;BME280;29282;45.656;11.302;2023-07-28T04:20:45;98140.16;;;23.76;53.32
33163;BME280;29282;45.656;11.302;2023-07-28T04:23:11;98133.03;;;23.75;53.79
33163;BME280;29282;45.656;11.302;2023-07-28T04:25:37;98137.75;;;23.74;53.63
33163;BME280;29282;45.656;11.302;2023-07-28T04:28:02;98144.88;;;23.75;53.54
33163;BME280;29282;45.656;11.302;2023-07-28T04:30:28;98147.66;;;23.75;53.61
33163;BME280;29282;45.656;11.302;2023-07-28T04:32:56;98137.75;;;23.74;53.59
33163;BME280;29282;45.656;11.302;2023-07-28T04:35:22;98133.03;;;23.75;53.52
33163;BME280;29282;45.656;11.302;2023-07-28T04:37:47;98138.56;;;23.75;53.77
33163;BME280;29282;45.656;11.302;2023-07-28T04:40:12;98132.22;;;23.74;53.50
33163;BME280;29282;45.656;11.302;2023-07-28T04:42:39;98135.78;;;23.75;53.36
33163;BME280;29282;45.656;11.302;2023-07-28T04:45:04;98143.28;;;23.74;53.44
33163;BME280;29282;45.656;11.302;2023-07-28T04:47:30;98132.22;;;23.74;53.29
33163;BME280;29282;45.656;11.302;2023-07-28T04:49:56;98124.72;;;23.75;53.68
33163;BME280;29282;45.656;11.302;2023-07-28T04:52:21;98125.53;;;23.75;53.77
33163;BME280;29282;45.656;11.302;2023-07-28T04:54:49;98132.22;;;23.74;53.68
33163;BME280;29282;45.656;11.302;2023-07-28T04:57:15;98137.75;;;23.74;53.53
33163;BME280;29282;45.656;11.302;2023-07-28T04:59:40;98127.50;;;23.75;53.45
33163;BME280;29282;45.656;11.302;2023-07-28T05:02:07;98121.16;;;23.74;53.72
33163;BME280;29282;45.656;11.302;2023-07-28T05:04:32;98129.47;;;23.74;53.56
33163;BME280;29282;45.656;11.302;2023-07-28T05:06:58;98132.22;;;23.74;53.76
33163;BME280;29282;45.656;11.302;2023-07-28T05:09:23;98138.56;;;23.75;53.69
33163;BME280;29282;45.656;11.302;2023-07-28T05:11:49;98144.88;;;23.75;53.47
33163;BME280;29282;45.656;11.302;2023-07-28T05:14:17;98141.31;;;23.75;53.38
33163;BME280;29282;45.656;11.302;2023-07-28T05:16:42;98140.53;;;23.74;53.57
33163;BME280;29282;45.656;11.302;2023-07-28T05:19:08;98140.16;;;23.76;53.57
33163;BME280;29282;45.656;11.302;2023-07-28T05:21:33;98144.88;;;23.75;53.39
33163;BME280;29282;45.656;11.302;2023-07-28T05:23:59;98142.13;;;23.75;53.78
33163;BME280;29282;45.656;11.302;2023-07-28T05:26:24;98155.94;;;23.75;53.46
33163;BME280;29282;45.656;11.302;2023-07-28T05:28:50;98161.47;;;23.75;53.48
33163;BME280;29282;45.656;11.302;2023-07-28T05:31:16;98161.47;;;23.75;53.65
33163;BME280;29282;45.656;11.302;2023-07-28T05:33:41;98162.66;;;23.74;53.55
33163;BME280;29282;45.656;11.302;2023-07-28T05:36:07;98171.75;;;23.75;53.72
33163;BME280;29282;45.656;11.302;2023-07-28T05:38:33;98164.25;;;23.75;53.26
33163;BME280;29282;45.656;11.302;2023-07-28T05:41:02;98161.47;;;23.75;53.57
33163;BME280;29282;45.656;11.302;2023-07-28T05:43:31;98158.72;;;23.75;53.68
33163;BME280;29282;45.656;11.302;2023-07-28T05:45:58;98152.00;;;23.76;53.51
33163;BME280;29282;45.656;11.302;2023-07-28T05:48:24;98166.63;;;23.77;53.66
33163;BME280;29282;45.656;11.302;2023-07-28T05:50:50;98161.09;;;23.77;53.66
33163;BME280;29282;45.656;11.302;2023-07-28T05:53:17;98163.06;;;23.76;53.55
33163;BME280;29282;45.656;11.302;2023-07-28T05:55:43;98161.88;;;23.77;53.34
33163;BME280;29282;45.656;11.302;2023-07-28T05:58:08;98169.41;;;23.77;53.59
33163;BME280;29282;45.656;11.302;2023-07-28T06:00:34;98169.41;;;23.77;53.49
33163;BME280;29282;45.656;11.302;2023-07-28T06:02:59;98177.69;;;23.77;53.41
33163;BME280;29282;45.656;11.302;2023-07-28T06:05:25;98181.63;;;23.76;53.53
33163;BME280;29282;45.656;11.302;2023-07-28T06:07:50;98176.91;;;23.76;53.60
33163;BME280;29282;45.656;11.302;2023-07-28T06:10:16;98184.03;;;23.77;53.61
33163;BME280;29282;45.656;11.302;2023-07-28T06:12:41;98170.19;;;23.77;53.56
33163;BME280;29282;45.656;11.302;2023-07-28T06:15:07;98174.13;;;23.76;53.67
33163;BME280;29282;45.656;11.302;2023-07-28T06:17:33;98177.69;;;23.77;53.70
33163;BME280;29282;45.656;11.302;2023-07-28T06:19:58;98183.66;;;23.79;53.48
33163;BME280;29282;45.656;11.302;2023-07-28T06:22:24;98180.09;;;23.78;53.50
33163;BME280;29282;45.656;11.302;2023-07-28T06:24:50;98185.63;;;23.78;53.57
33163;BME280;29282;45.656;11.302;2023-07-28T06:27:16;98187.59;;;23.78;53.54
33163;BME280;29282;45.656;11.302;2023-07-28T06:29:41;98185.63;;;23.78;53.89
33163;BME280;29282;45.656;11.302;2023-07-28T06:32:07;98195.91;;;23.78;53.64
33163;BME280;29282;45.656;11.302;2023-07-28T06:34:33;98206.16;;;23.77;53.45
33163;BME280;29282;45.656;11.302;2023-07-28T06:36:58;98190.38;;;23.78;53.79
33163;BME280;29282;45.656;11.302;2023-07-28T06:39:24;98186.78;;;23.77;53.70
33163;BME280;29282;45.656;11.302;2023-07-28T06:41:50;98187.59;;;23.78;53.52
33163;BME280;29282;45.656;11.302;2023-07-28T06:44:16;98191.97;;;23.79;53.39
33163;BME280;29282;45.656;11.302;2023-07-28T06:46:41;98203.38;;;23.77;53.49
33163;BME280;29282;45.656;11.302;2023-07-28T06:49:07;98203.38;;;23.77;53.43
33163;BME280;29282;45.656;11.302;2023-07-28T06:51:33;98199.47;;;23.78;53.61
33163;BME280;29282;45.656;11.302;2023-07-28T06:53:59;98196.69;;;23.78;53.78
33163;BME280;29282;45.656;11.302;2023-07-28T06:56:24;98201.06;;;23.79;53.57
33163;BME280;29282;45.656;11.302;2023-07-28T06:58:50;98196.69;;;23.78;53.70
33163;BME280;29282;45.656;11.302;2023-07-28T07:01:16;98206.59;;;23.79;53.68
33163;BME280;29282;45.656;11.302;2023-07-28T07:03:43;98208.56;;;23.79;53.68
33163;BME280;29282;45.656;11.302;2023-07-28T07:06:08;98207.38;;;23.80;53.69
33163;BME280;29282;45.656;11.302;2023-07-28T07:08:34;98205.41;;;23.80;53.70
33163;BME280;29282;45.656;11.302;2023-07-28T07:11:00;98209.00;;;23.81;53.87
33163;BME280;29282;45.656;11.302;2023-07-28T07:13:25;98209.00;;;23.81;53.71
33163;BME280;29282;45.656;11.302;2023-07-28T07:15:51;98210.94;;;23.80;53.73
33163;BME280;29282;45.656;11.302;2023-07-28T07:18:17;98206.22;;;23.81;53.89
33163;BME280;29282;45.656;11.302;2023-07-28T07:20:43;98200.69;;;23.81;53.60
33163;BME280;29282;45.656;11.302;2023-07-28T07:23:08;98204.25;;;23.81;53.91
33163;BME280;29282;45.656;11.302;2023-07-28T07:25:34;98196.75;;;23.82;53.61
33163;BME280;29282;45.656;11.302;2023-07-28T07:27:59;98205.84;;;23.82;53.58
33163;BME280;29282;45.656;11.302;2023-07-28T07:30:25;98202.28;;;23.82;53.54
33163;BME280;29282;45.656;11.302;2023-07-28T07:32:50;98200.31;;;23.82;53.66
33163;BME280;29282;45.656;11.302;2023-07-28T07:35:16;98196.75;;;23.82;53.80
33163;BME280;29282;45.656;11.302;2023-07-28T07:37:41;98203.06;;;23.82;53.70
33163;BME280;29282;45.656;11.302;2023-07-28T07:40:07;98200.31;;;23.82;53.94
33163;BME280;29282;45.656;11.302;2023-07-28T07:42:44;98197.53;;;23.82;53.98
33163;BME280;29282;45.656;11.302;2023-07-28T07:45:11;98201.09;;;23.83;53.63
33163;BME280;29282;45.656;11.302;2023-07-28T07:47:37;98196.38;;;23.83;53.64
33163;BME280;29282;45.656;11.302;2023-07-28T07:50:03;98199.13;;;23.83;53.73
33163;BME280;29282;45.656;11.302;2023-07-28T07:52:30;98201.91;;;23.83;53.66
33163;BME280;29282;45.656;11.302;2023-07-28T07:54:55;98201.91;;;23.83;53.87
33163;BME280;29282;45.656;11.302;2023-07-28T07:57:21;98201.91;;;23.83;53.65
33163;BME280;29282;45.656;11.302;2023-07-28T07:59:46;98199.91;;;23.84;53.77
33163;BME280;29282;45.656;11.302;2023-07-28T08:02:12;98211.81;;;23.84;53.66
33163;BME280;29282;45.656;11.302;2023-07-28T08:04:37;98210.63;;;23.85;53.67
33163;BME280;29282;45.656;11.302;2023-07-28T08:07:03;98203.50;;;23.84;53.52
33163;BME280;29282;45.656;11.302;2023-07-28T08:09:30;98212.59;;;23.85;53.68
33163;BME280;29282;45.656;11.302;2023-07-28T08:11:56;98217.34;;;23.84;53.92
33163;BME280;29282;45.656;11.302;2023-07-28T08:14:21;98211.00;;;23.84;53.73
33163;BME280;29282;45.656;11.302;2023-07-28T08:16:47;98216.53;;;23.84;53.67
33163;BME280;29282;45.656;11.302;2023-07-28T08:19:12;98218.50;;;23.83;53.73
33163;BME280;29282;45.656;11.302;2023-07-28T08:21:38;98224.81;;;23.84;53.71
33163;BME280;29282;45.656;11.302;2023-07-28T08:24:06;98224.03;;;23.83;53.97
33163;BME280;29282;45.656;11.302;2023-07-28T08:26:32;98231.19;;;23.84;53.94
33163;BME280;29282;45.656;11.302;2023-07-28T08:28:57;98231.19;;;23.84;53.77
33163;BME280;29282;45.656;11.302;2023-07-28T08:31:23;98222.88;;;23.84;53.84
33163;BME280;29282;45.656;11.302;2023-07-28T08:33:48;98226.44;;;23.85;53.88
33163;BME280;29282;45.656;11.302;2023-07-28T08:36:14;98224.47;;;23.85;53.72
33163;BME280;29282;45.656;11.302;2023-07-28T08:38:39;98217.34;;;23.84;53.65
33163;BME280;29282;45.656;11.302;2023-07-28T08:41:05;98220.13;;;23.84;53.82
33163;BME280;29282;45.656;11.302;2023-07-28T08:43:31;98228.41;;;23.84;53.88
33163;BME280;29282;45.656;11.302;2023-07-28T08:45:57;98227.25;;;23.85;53.63
33163;BME280;29282;45.656;11.302;2023-07-28T08:48:23;98239.09;;;23.86;53.63
33163;BME280;29282;45.656;11.302;2023-07-28T08:50:49;98231.19;;;23.84;53.81
33163;BME280;29282;45.656;11.302;2023-07-28T08:53:16;98232.78;;;23.85;53.94
33163;BME280;29282;45.656;11.302;2023-07-28T08:55:42;98231.97;;;23.85;53.71
33163;BME280;29282;45.656;11.302;2023-07-28T08:58:18;98241.06;;;23.85;54.03
33163;BME280;29282;45.656;11.302;2023-07-28T09:00:48;98233.94;;;23.84;53.61
33163;BME280;29282;45.656;11.302;2023-07-28T09:03:18;98233.94;;;23.84;53.96
33163;BME280;29282;45.656;11.302;2023-07-28T09:05:45;98233.94;;;23.84;53.76
33163;BME280;29282;45.656;11.302;2023-07-28T09:08:16;98231.97;;;23.85;53.92
33163;BME280;29282;45.656;11.302;2023-07-28T09:10:46;98233.94;;;23.84;53.82
33163;BME280;29282;45.656;11.302;2023-07-28T09:13:15;98232.78;;;23.85;53.64
33163;BME280;29282;45.656;11.302;2023-07-28T09:15:41;98225.25;;;23.86;53.79
33163;BME280;29282;45.656;11.302;2023-07-28T09:18:08;98228.03;;;23.86;53.93
33163;BME280;29282;45.656;11.302;2023-07-28T09:20:35;98226.44;;;23.85;53.93
33163;BME280;29282;45.656;11.302;2023-07-28T09:23:01;98227.25;;;23.85;53.99
33163;BME280;29282;45.656;11.302;2023-07-28T09:25:28;98222.88;;;23.84;53.89
33163;BME280;29282;45.656;11.302;2023-07-28T09:27:57;98220.91;;;23.85;53.82
33163;BME280;29282;45.656;11.302;2023-07-28T09:30:24;98234.75;;;23.85;53.76
33163;BME280;29282;45.656;11.302;2023-07-28T09:32:53;98236.72;;;23.84;53.74
33163;BME280;29282;45.656;11.302;2023-07-28T09:35:20;98237.50;;;23.85;53.57
33163;BME280;29282;45.656;11.302;2023-07-28T09:37:48;98235.88;;;23.84;53.97
33163;BME280;29282;45.656;11.302;2023-07-28T09:40:17;98236.72;;;23.84;53.95
33163;BME280;29282;45.656;11.302;2023-07-28T09:42:45;98236.31;;;23.86;54.22
33163;BME280;29282;45.656;11.302;2023-07-28T09:45:15;98226.44;;;23.85;54.11
33163;BME280;29282;45.656;11.302;2023-07-28T09:47:44;98228.41;;;23.84;53.83
33163;BME280;29282;45.656;11.302;2023-07-28T09:50:14;98228.41;;;23.84;53.86
33163;BME280;29282;45.656;11.302;2023-07-28T09:52:43;98237.50;;;23.85;53.92
33163;BME280;29282;45.656;11.302;2023-07-28T09:55:10;98231.59;;;23.86;53.95
33163;BME280;29282;45.656;11.302;2023-07-28T09:57:45;98231.19;;;23.84;53.95
33163;BME280;29282;45.656;11.302;2023-07-28T10:00:13;98221.69;;;23.85;53.70
33163;BME280;29282;45.656;11.302;2023-07-28T10:02:40;98218.94;;;23.85;54.17
33163;BME280;29282;45.656;11.302;2023-07-28T10:05:06;98205.91;;;23.86;54.26
33163;BME280;29282;45.656;11.302;2023-07-28T10:07:38;98207.88;;;23.85;53.80
33163;BME280;29282;45.656;11.302;2023-07-28T10:10:06;98208.66;;;23.86;54.02
33163;BME280;29282;45.656;11.302;2023-07-28T10:15:12;98209.44;;;23.86;53.84
33163;BME280;29282;45.656;11.302;2023-07-28T10:17:38;98203.13;;;23.86;53.86
33163;BME280;29282;45.656;11.302;2023-07-28T10:20:04;98215.00;;;23.86;53.84
33163;BME280;29282;45.656;11.302;2023-07-28T10:22:46;98200.38;;;23.86;53.95
33163;BME280;29282;45.656;11.302;2023-07-28T10:25:12;98198.38;;;23.86;53.81
33163;BME280;29282;45.656;11.302;2023-07-28T10:27:46;98203.91;;;23.86;53.75
33163;BME280;29282;45.656;11.302;2023-07-28T10:30:13;98212.22;;;23.86;54.06
33163;BME280;29282;45.656;11.302;2023-07-28T10:32:41;98209.44;;;23.86;54.05
33163;BME280;29282;45.656;11.302;2023-07-28T10:37:39;98216.16;;;23.85;53.94
33163;BME280;29282;45.656;11.302;2023-07-28T10:40:27;98216.97;;;23.86;54.13
33163;BME280;29282;45.656;11.302;2023-07-28T10:42:54;98213.41;;;23.85;53.96
33163;BME280;29282;45.656;11.302;2023-07-28T10:45:22;98205.91;;;23.86;53.97
33163;BME280;29282;45.656;11.302;2023-07-28T10:47:48;98205.91;;;23.86;54.20
33163;BME280;29282;45.656;11.302;2023-07-28T10:50:14;98205.91;;;23.86;53.88
33163;BME280;29282;45.656;11.302;2023-07-28T10:52:44;98199.56;;;23.85;54.02
33163;BME280;29282;45.656;11.302;2023-07-28T10:55:36;98208.31;;;23.87;53.87
33163;BME280;29282;45.656;11.302;2023-07-28T10:58:01;98210.25;;;23.87;53.95
33163;BME280;29282;45.656;11.302;2023-07-28T11:00:29;98201.16;;;23.86;54.19
33163;BME280;29282;45.656;11.302;2023-07-28T11:02:55;98200.38;;;23.86;53.92
33163;BME280;29282;45.656;11.302;2023-07-28T11:05:28;98203.91;;;23.86;53.85
33163;BME280;29282;45.656;11.302;2023-07-28T11:07:56;98200.38;;;23.86;54.20
33163;BME280;29282;45.656;11.302;2023-07-28T11:10:22;98199.56;;;23.85;53.97
33163;BME280;29282;45.656;11.302;2023-07-28T11:12:50;98203.91;;;23.86;53.95
33163;BME280;29282;45.656;11.302;2023-07-28T11:15:17;98194.81;;;23.86;54.25
33163;BME280;29282;45.656;11.302;2023-07-28T11:17:46;98204.72;;;23.87;54.00
33163;BME280;29282;45.656;11.302;2023-07-28T11:20:15;98201.16;;;23.86;54.05
33163;BME280;29282;45.656;11.302;2023-07-28T11:22:45;98199.19;;;23.87;54.14
33163;BME280;29282;45.656;11.302;2023-07-28T11:25:11;98194.81;;;23.86;53.89
33163;BME280;29282;45.656;11.302;2023-07-28T11:27:38;98188.13;;;23.87;53.75
33163;BME280;29282;45.656;11.302;2023-07-28T11:30:05;98192.06;;;23.86;54.10
33163;BME280;29282;45.656;11.302;2023-07-28T11:32:34;98186.53;;;23.86;53.97
33163;BME280;29282;45.656;11.302;2023-07-28T11:35:07;98189.28;;;23.86;53.97
33163;BME280;29282;45.656;11.302;2023-07-28T11:37:35;98183.75;;;23.86;54.10
33163;BME280;29282;45.656;11.302;2023-07-28T11:40:03;98189.28;;;23.86;54.17
33163;BME280;29282;45.656;11.302;2023-07-28T11:42:36;98178.22;;;23.86;54.10
33163;BME280;29282;45.656;11.302;2023-07-28T11:45:04;98182.97;;;23.85;54.11
33163;BME280;29282;45.656;11.302;2023-07-28T11:47:33;98188.94;;;23.87;53.90
33163;BME280;29282;45.656;11.302;2023-07-28T11:49:59;98179.03;;;23.86;54.10
33163;BME280;29282;45.656;11.302;2023-07-28T11:52:36;98179.81;;;23.87;53.96
33163;BME280;29282;45.656;11.302;2023-07-28T11:55:04;98177.88;;;23.87;54.27
33163;BME280;29282;45.656;11.302;2023-07-28T11:57:31;98175.09;;;23.87;54.31
33163;BME280;29282;45.656;11.302;2023-07-28T11:59:57;98175.09;;;23.87;53.99
33163;BME280;29282;45.656;11.302;2023-07-28T12:02:27;98165.97;;;23.87;54.32
33163;BME280;29282;45.656;11.302;2023-07-28T12:04:54;98165.97;;;23.87;54.09
33163;BME280;29282;45.656;11.302;2023-07-28T12:07:27;98161.25;;;23.87;54.17
33163;BME280;29282;45.656;11.302;2023-07-28T12:09:57;98164.81;;;23.88;54.52
33163;BME280;29282;45.656;11.302;2023-07-28T12:12:29;98162.84;;;23.88;54.69
33163;BME280;29282;45.656;11.302;2023-07-28T12:14:57;98158.13;;;23.89;55.16
33163;BME280;29282;45.656;11.302;2023-07-28T12:17:30;98162.84;;;23.88;55.08
33163;BME280;29282;45.656;11.302;2023-07-28T12:20:07;98161.69;;;23.89;55.49
33163;BME280;29282;45.656;11.302;2023-07-28T12:22:37;98161.69;;;23.89;55.70
33163;BME280;29282;45.656;11.302;2023-07-28T12:25:04;98158.91;;;23.89;55.31
33163;BME280;29282;45.656;11.302;2023-07-28T12:27:31;98160.09;;;23.88;55.61
33163;BME280;29282;45.656;11.302;2023-07-28T12:30:01;98153.38;;;23.89;55.55
33163;BME280;29282;45.656;11.302;2023-07-28T12:32:28;98148.63;;;23.90;55.69
33163;BME280;29282;45.656;11.302;2023-07-28T12:34:55;98141.50;;;23.89;55.59
33163;BME280;29282;45.656;11.302;2023-07-28T12:37:20;98142.31;;;23.89;55.29
33163;BME280;29282;45.656;11.302;2023-07-28T12:39:48;98152.19;;;23.90;55.49
33163;BME280;29282;45.656;11.302;2023-07-28T12:42:15;98157.72;;;23.90;55.65
33163;BME280;29282;45.656;11.302;2023-07-28T12:44:41;98150.25;;;23.91;55.22
33163;BME280;29282;45.656;11.302;2023-07-28T12:47:10;98153.00;;;23.91;55.39
33163;BME280;29282;45.656;11.302;2023-07-28T12:49:37;98148.28;;;23.91;55.46
33163;BME280;29282;45.656;11.302;2023-07-28T12:52:05;98153.00;;;23.91;55.39
33163;BME280;29282;45.656;11.302;2023-07-28T12:54:34;98147.47;;;23.91;55.45
33163;BME280;29282;45.656;11.302;2023-07-28T12:57:00;98153.81;;;23.91;55.32
33163;BME280;29282;45.656;11.302;2023-07-28T12:59:27;98148.28;;;23.91;55.39